Inspiration — C6FM5 — position and weather

sailwx.info

Track history (hours):
 
Tides and Currents Weather Stations Pressure Air Temp Water Temp Dewpoint Dewpoint Depression Visibility Wind Speed Wind Dir Waves Ship Positions

Inspiration

Operator: Carnival Cruise Lines

Last reported at 2019-Oct-23 01:00 UTC. Time now 2019-Oct-23 01:03 UTC.
Position N 33°11' W 118°10'.

Type: Ship. MMSI: 309484000.

Date/timePositionNaut miles runAvg speedWind from/ knotsBaromVisibWave heightAir tempDewpointWater temp
2019-Oct-23 01:00N 33°11' W 118°10'5 9.8
2019-Oct-23 00:30N 33°15' W 118°12'5 9.6
2019-Oct-23 00:01N 33°19' W 118°16'3 4.4
2019-Oct-22 23:14N 33°21' W 118°19'0 0.2
2019-Oct-22 22:56N 33°21' W 118°19'0 0.0
2019-Oct-22 22:26N 33°21' W 118°19'0 0.0
2019-Oct-22 21:56N 33°21' W 118°19'0 0.0
2019-Oct-22 21:26N 33°21' W 118°19'0 0.1
2019-Oct-22 20:56N 33°21' W 118°19'0 0.0
2019-Oct-22 20:20N 33°21' W 118°19'0 0.0
2019-Oct-22 19:56N 33°21' W 118°19'0 0.1
2019-Oct-22 19:08N 33°21' W 118°19'0 0.0
2019-Oct-22 18:56N 33°21' W 118°19'0 0.0
2019-Oct-22 18:26N 33°21' W 118°19'0 0.0
2019-Oct-22 17:56N 33°21' W 118°19'0 0.0
2019-Oct-22 17:20N 33°21' W 118°19'0 0.0
2019-Oct-22 16:56N 33°21' W 118°19'0 0.0
2019-Oct-22 16:26N 33°21' W 118°19'0 0.0
2019-Oct-22 16:01N 33°21' W 118°19'0 0.0
2019-Oct-22 15:31N 33°21' W 118°19'0 0.0
2019-Oct-22 15:01N 33°21' W 118°19'0 0.1
2019-Oct-22 14:30N 33°21' W 118°19'0 0.2
2019-Oct-22 14:01N 33°21' W 118°19'3 5.9
2019-Oct-22 13:30N 33°19' W 118°17'4 8.4
2019-Oct-22 13:01N 33°15' W 118°15'4 8.2
2019-Oct-22 12:30N 33°11' W 118°14'4 7.8
2019-Oct-22 12:00N 33°07' W 118°13'4 8.1
2019-Oct-22 11:30N 33°03' W 118°11'4 8.3
2019-Oct-22 11:00N 33°01' W 118°07'4 7.9
2019-Oct-22 10:30N 32°57' W 118°05'4 8.3
2019-Oct-22 10:01N 32°53' W 118°03'4 8.4
2019-Oct-22 09:30N 32°49' W 118°02'4 8.5
2019-Oct-22 09:01N 32°46' W 117°59'4 8.1
2019-Oct-22 08:30N 32°45' W 117°55'4 8.0
2019-Oct-22 08:00N 32°48' W 117°52'4 8.3
2019-Oct-22 07:30N 32°52' W 117°54'4 8.4
2019-Oct-22 07:01N 32°56' W 117°55'4 8.2
2019-Oct-22 06:31N 32°60' W 117°57'4 8.3
2019-Oct-22 06:00N 33°04' W 117°59'4 8.5
2019-Oct-22 05:30N 33°08' W 118°01'4 8.1
2019-Oct-22 05:00N 33°11' W 118°03'4 8.2
2019-Oct-22 04:30N 33°15' W 118°04'4 8.4
2019-Oct-22 04:00N 33°19' W 118°06'168.5
2019-Oct-22 04:00N 33°18' W 118°06'511.0 310 / 121020.610.8 21.018.020.0
2019-Oct-22 03:31N 33°23' W 118°08'4 8.2
2019-Oct-22 03:00N 33°27' W 118°10'3 7.0
2019-Oct-22 02:30N 33°30' W 118°11'3 6.9
2019-Oct-22 02:00N 33°33' W 118°12'5 9.2
2019-Oct-22 01:31N 33°38' W 118°13'5 9.4
2019-Oct-22 01:00N 33°43' W 118°11'2 4.7
2019-Oct-22 00:29N 33°45' W 118°11'0 0.0
2019-Oct-21 23:59N 33°45' W 118°11'0 0.0
2019-Oct-21 23:29N 33°45' W 118°11'0 0.0
2019-Oct-21 22:59N 33°45' W 118°11'0 0.0
2019-Oct-21 22:29N 33°45' W 118°11'0 0.0
2019-Oct-21 21:59N 33°45' W 118°11'0 0.0
2019-Oct-21 21:29N 33°45' W 118°11'0 0.0
2019-Oct-21 20:56N 33°45' W 118°11'0 0.0
2019-Oct-21 20:29N 33°45' W 118°11'0 0.0
2019-Oct-21 19:59N 33°45' W 118°11'0 0.0
2019-Oct-21 19:26N 33°45' W 118°11'0 0.0
2019-Oct-21 18:56N 33°45' W 118°11'0 0.0
2019-Oct-21 18:29N 33°45' W 118°11'0 0.0
2019-Oct-21 17:56N 33°45' W 118°11'0 0.0
2019-Oct-21 17:26N 33°45' W 118°11'0 0.0
2019-Oct-21 16:59N 33°45' W 118°11'0 0.0
2019-Oct-21 16:29N 33°45' W 118°11'0 0.0
2019-Oct-21 15:59N 33°45' W 118°11'0 0.0
2019-Oct-21 15:29N 33°45' W 118°11'0 0.0
2019-Oct-21 14:59N 33°45' W 118°11'0 0.0
2019-Oct-21 14:29N 33°45' W 118°11'0 0.0
2019-Oct-21 13:59N 33°45' W 118°11'0 0.0
2019-Oct-21 13:29N 33°45' W 118°11'0 0.0
2019-Oct-21 13:00N 33°45' W 118°11'0 0.5
2019-Oct-21 12:30N 33°45' W 118°11'2 3.3
2019-Oct-21 12:00N 33°43' W 118°11'4 7.9
2019-Oct-21 11:30N 33°39' W 118°10'4 8.9
2019-Oct-21 11:00N 33°35' W 118°09'5 9.9
2019-Oct-21 10:30N 33°30' W 118°07'5 9.8
2019-Oct-21 10:00N 33°26' W 118°05'5 9.9
2019-Oct-21 09:30N 33°21' W 118°04'5 9.1
2019-Oct-21 09:00N 33°17' W 118°01'5 9.9
2019-Oct-21 08:30N 33°12' W 117°59'5 9.9
2019-Oct-21 08:00N 33°08' W 117°56'714.1
2019-Oct-21 07:30N 33°02' W 117°52'918.6
2019-Oct-21 07:00N 32°53' W 117°47'918.6
2019-Oct-21 06:30N 32°45' W 117°42'918.5
2019-Oct-21 06:00N 32°37' W 117°37'918.5
2019-Oct-21 05:30N 32°29' W 117°32'918.1
2019-Oct-21 05:00N 32°21' W 117°27'917.7
2019-Oct-21 04:30N 32°13' W 117°22'917.3
2019-Oct-21 04:00N 32°06' W 117°15'713.7
2019-Oct-21 03:30N 32°01' W 117°10'5 9.7
2019-Oct-21 03:01N 31°59' W 117°05'10 0.7
2019-Oct-20 11:27N 31°50' W 116°60'4 7.7
2019-Oct-20 10:52N 31°49' W 117°05'3 8.8
2019-Oct-20 10:30N 31°51' W 117°08'5 9.4
2019-Oct-20 10:00N 31°53' W 117°13'5 9.1
2019-Oct-20 09:30N 31°56' W 117°17'5 9.2
2019-Oct-20 09:00N 31°59' W 117°22'5 9.2
2019-Oct-20 08:30N 32°01' W 117°26'5 9.9
2019-Oct-20 08:00N 32°05' W 117°30'510.1
2019-Oct-20 07:30N 32°10' W 117°32'4 8.1
2019-Oct-20 07:00N 32°13' W 117°35'3 5.8
2019-Oct-20 06:30N 32°10' W 117°37'4 8.0
2019-Oct-20 06:00N 32°07' W 117°34'4 8.1
2019-Oct-20 05:30N 32°04' W 117°32'4 8.0
2019-Oct-20 05:00N 32°01' W 117°29'8640.4
2019-Oct-20 05:00N 31°54' W 117°24'4 7.8 310 / 151015.910.8 20.016.920.0
2019-Oct-20 04:30N 31°57' W 117°26'4 7.9
2019-Oct-20 04:00N 31°54' W 117°24'4 7.7
2019-Oct-20 03:30N 31°51' W 117°21'4 7.7
2019-Oct-20 03:00N 31°47' W 117°19'4 7.7
2019-Oct-20 02:30N 31°44' W 117°17'4 7.4
2019-Oct-20 02:00N 31°40' W 117°16'4 7.1
2019-Oct-20 01:28N 31°37' W 117°15'3 7.3
2019-Oct-20 01:00N 31°34' W 117°12'5 7.5
2019-Oct-20 00:24N 31°30' W 117°10'3 7.8
2019-Oct-20 00:00N 31°27' W 117°08'4 7.0
2019-Oct-19 23:30N 31°24' W 117°10'4 7.4
2019-Oct-19 23:00N 31°25' W 117°14'4 8.6
2019-Oct-19 22:30N 31°26' W 117°19'510.3
2019-Oct-19 22:00N 31°28' W 117°25'810.3
2019-Oct-19 21:13N 31°30' W 117°34'410.1
2019-Oct-19 20:52N 31°31' W 117°38'4 9.9
2019-Oct-19 20:30N 31°31' W 117°42'4 8.6
2019-Oct-19 20:00N 31°32' W 117°47'4 7.0
2019-Oct-19 19:30N 31°35' W 117°49'4 7.1
2019-Oct-19 19:00N 31°38' W 117°52'4 7.2
2019-Oct-19 18:30N 31°41' W 117°54'4 7.2
2019-Oct-19 18:00N 31°43' W 117°58'4 7.3
2019-Oct-19 17:30N 31°46' W 118°01'4 7.3
2019-Oct-19 17:00N 31°48' W 118°04'4 7.2
2019-Oct-19 16:30N 31°51' W 118°07'4 8.3
2019-Oct-19 16:00N 31°55' W 118°07'510.1
2019-Oct-19 15:30N 31°60' W 118°05'510.0
2019-Oct-19 15:00N 32°04' W 118°03'5312.6
2019-Oct-19 15:00N 32°00' W 118°00'917.7 300 / 161016.210.8 17.017.019.0
2019-Oct-19 14:29N 32°09' W 118°01'5 9.6
2019-Oct-19 14:00N 32°13' W 117°58'4 8.3
2019-Oct-19 13:30N 32°17' W 117°57'4 7.7
2019-Oct-19 13:00N 32°21' W 117°55'4 7.5
2019-Oct-19 12:30N 32°24' W 117°53'4 7.6
2019-Oct-19 12:00N 32°28' W 117°52'5315.6
2019-Oct-19 12:00N 32°24' W 117°48'714.7 300 / 61015.210.8 20.018.520.0
2019-Oct-19 11:30N 32°31' W 117°50'4 7.3
2019-Oct-19 11:00N 32°34' W 117°48'4 7.2
2019-Oct-19 10:30N 32°38' W 117°47'4 7.4
2019-Oct-19 10:00N 32°41' W 117°49'4 7.5
2019-Oct-19 09:30N 32°45' W 117°50'4 7.4
2019-Oct-19 09:00N 32°48' W 117°52'4 7.4
2019-Oct-19 08:30N 32°52' W 117°53'4 7.4
2019-Oct-19 08:00N 32°55' W 117°55'4 7.5
2019-Oct-19 07:30N 32°59' W 117°57'4 7.4
2019-Oct-19 07:00N 33°02' W 117°58'4 7.6
2019-Oct-19 06:30N 33°06' W 117°60'4 7.3
2019-Oct-19 06:00N 33°09' W 118°01'4 7.5
2019-Oct-19 05:30N 33°13' W 118°03'4 7.9
2019-Oct-19 05:00N 33°16' W 118°05'6392.4
2019-Oct-19 05:00N 33°12' W 118°00'1019.7 250 / 81016.010.8 20.016.920.0
2019-Oct-19 04:30N 33°20' W 118°06'4 7.8
2019-Oct-19 04:00N 33°24' W 118°08'6408.7
2019-Oct-19 04:00N 33°18' W 118°06'1019.9 340 / 51015.810.8 20.016.920.0
2019-Oct-19 03:30N 33°27' W 118°10'4 7.3
2019-Oct-19 03:00N 33°31' W 118°11'5 9.2
2019-Oct-19 02:30N 33°35' W 118°13'5 9.8
2019-Oct-19 02:00N 33°40' W 118°12'5 9.5
2019-Oct-19 01:30N 33°44' W 118°11'1 1.7
2019-Oct-19 01:00N 33°45' W 118°11'0 0.0
2019-Oct-19 00:27N 33°45' W 118°11'0 0.0
2019-Oct-18 23:57N 33°45' W 118°11'0 0.0
2019-Oct-18 23:30N 33°45' W 118°11'0 0.0
2019-Oct-18 23:00N 33°45' W 118°11'0 0.0
2019-Oct-18 22:30N 33°45' W 118°11'0 0.0
2019-Oct-18 21:57N 33°45' W 118°11'0 0.0
2019-Oct-18 21:30N 33°45' W 118°11'0 0.0
2019-Oct-18 20:57N 33°45' W 118°11'0 0.0
2019-Oct-18 20:30N 33°45' W 118°11'0 0.0
2019-Oct-18 20:00N 33°45' W 118°11'0 0.0
2019-Oct-18 19:30N 33°45' W 118°11'0 0.0
2019-Oct-18 18:57N 33°45' W 118°11'0 0.0
2019-Oct-18 18:27N 33°45' W 118°11'0 0.0
2019-Oct-18 17:48N 33°45' W 118°11'0 0.0
2019-Oct-18 17:24N 33°45' W 118°11'0 0.0
2019-Oct-18 16:51N 33°45' W 118°11'0 0.0
2019-Oct-18 16:30N 33°45' W 118°11'0 0.0
2019-Oct-18 16:00N 33°45' W 118°11'0 0.0
2019-Oct-18 15:27N 33°45' W 118°11'0 0.0
2019-Oct-18 15:00N 33°45' W 118°11'0 0.0
2019-Oct-18 14:27N 33°45' W 118°11'0 0.0
2019-Oct-18 13:54N 33°45' W 118°11'0 0.0
2019-Oct-18 13:30N 33°45' W 118°11'0 0.0
2019-Oct-18 13:00N 33°45' W 118°11'0 0.0
2019-Oct-18 12:27N 33°45' W 118°11'0 0.0
2019-Oct-18 12:00N 33°45' W 118°11'1 1.1
2019-Oct-18 11:31N 33°45' W 118°11'5 9.9
2019-Oct-18 11:00N 33°40' W 118°10'714.4
2019-Oct-18 10:30N 33°33' W 118°08'5 9.9
2019-Oct-18 10:00N 33°28' W 118°06'4 7.9
2019-Oct-18 09:30N 33°24' W 118°05'5 8.4
2019-Oct-18 08:52N 33°19' W 118°03'3 7.2
2019-Oct-18 08:30N 33°17' W 118°02'4 7.9
2019-Oct-18 08:00N 33°13' W 118°00'4 7.7
2019-Oct-18 07:30N 33°09' W 117°59'4 7.9
2019-Oct-18 07:00N 33°06' W 117°57'4 7.8
2019-Oct-18 06:30N 33°02' W 117°55'4 7.8
2019-Oct-18 06:00N 32°58' W 117°54'7740.8
2019-Oct-18 06:00N 32°54' W 117°48'4 7.8 340 / 51013.210.8 18.014.820.0
2019-Oct-18 05:30N 32°55' W 117°52'4 7.7
2019-Oct-18 05:00N 32°51' W 117°51'4255.5
2019-Oct-18 05:00N 32°48' W 117°48'1 2.7 270 / 131013.110.8 18.014.820.0
2019-Oct-18 04:30N 32°47' W 117°49'4 8.0
2019-Oct-18 04:00N 32°44' W 117°48'5351.5
2019-Oct-18 04:00N 32°42' W 117°42'4 8.5 270 / 201013.210.8 18.014.820.0
2019-Oct-18 03:30N 32°40' W 117°46'4 7.5
2019-Oct-18 03:00N 32°36' W 117°45'4 8.1
2019-Oct-18 02:30N 32°33' W 117°43'4 8.4
2019-Oct-18 02:00N 32°29' W 117°41'4 8.4
2019-Oct-18 01:30N 32°25' W 117°40'4 8.2
2019-Oct-18 01:00N 32°21' W 117°38'4 7.9
2019-Oct-18 00:30N 32°17' W 117°36'4 7.9
2019-Oct-18 00:00N 32°14' W 117°33'4 8.1
2019-Oct-17 23:30N 32°11' W 117°30'5 8.1
2019-Oct-17 22:57N 32°08' W 117°26'3 7.4
2019-Oct-17 22:30N 32°06' W 117°23'4 7.5
2019-Oct-17 22:00N 32°03' W 117°20'4 7.5
2019-Oct-17 21:30N 32°00' W 117°17'12 7.3
2019-Oct-17 19:50N 31°50' W 117°09'3 7.5
2019-Oct-17 19:25N 31°47' W 117°08'3 7.2
2019-Oct-17 19:00N 31°44' W 117°06'4 7.9
2019-Oct-17 18:29N 31°41' W 117°09'4 7.2
2019-Oct-17 17:54N 31°39' W 117°13'3 6.8
2019-Oct-17 17:30N 31°37' W 117°16'3 7.1
2019-Oct-17 17:00N 31°37' W 117°20'4 7.8
2019-Oct-17 16:30N 31°37' W 117°24'4 7.7
2019-Oct-17 16:00N 31°37' W 117°29'4283.5
2019-Oct-17 16:00N 31°36' W 117°24'816.3 320 / 151015.210.8 20.016.919.0
2019-Oct-17 15:30N 31°37' W 117°33'4 7.4
2019-Oct-17 15:00N 31°38' W 117°38'4 7.5
2019-Oct-17 14:30N 31°38' W 117°42'4 7.7
2019-Oct-17 14:00N 31°38' W 117°47'4 7.7
2019-Oct-17 13:30N 31°38' W 117°51'4 7.8
2019-Oct-17 12:59N 31°38' W 117°56'4 7.8
2019-Oct-17 12:30N 31°38' W 118°00'4 7.9
2019-Oct-17 12:00N 31°38' W 118°05'4 7.1
2019-Oct-17 11:30N 31°36' W 118°08'4 7.7
2019-Oct-17 11:00N 31°32' W 118°09'4 7.6
2019-Oct-17 10:30N 31°28' W 118°09'4 7.5
2019-Oct-17 10:00N 31°26' W 118°05'4 7.7
2019-Oct-17 09:30N 31°24' W 118°02'4 7.8
2019-Oct-17 09:00N 31°22' W 117°58'4 7.2
2019-Oct-17 08:30N 31°23' W 117°53'7 7.4
2019-Oct-17 07:36N 31°25' W 117°46'1 7.5
2019-Oct-17 07:28N 31°26' W 117°45'5 9.2
2019-Oct-17 06:53N 31°28' W 117°39'410.4
2019-Oct-17 06:30N 31°29' W 117°35'918.7
2019-Oct-17 06:00N 31°30' W 117°24'440.8 300 / 151014.810.8 20.016.919.0
2019-Oct-17 05:54N 31°32' W 117°28'410.4
2019-Oct-17 05:31N 31°33' W 117°24'1120.5
2019-Oct-17 05:00N 31°36' W 117°12'52079.4 300 / 111014.110.8 20.016.919.0
2019-Oct-17 04:59N 31°35' W 117°18'510.7
2019-Oct-17 04:30N 31°37' W 117°12'1120.9
2019-Oct-17 04:00N 31°36' W 117°00'521.2 340 / 101013.710.8 20.016.919.0
2019-Oct-17 03:44N 31°41' W 117°03'311.7
2019-Oct-17 03:30N 31°42' W 116°60'15 1.0
2019-Oct-16 12:52N 31°53' W 116°48'3 8.3
2019-Oct-16 12:30N 31°54' W 116°51'4 7.9
2019-Oct-16 11:59N 31°56' W 116°55'5 9.0
2019-Oct-16 11:27N 31°58' W 117°01'4 9.0
2019-Oct-16 11:00N 31°59' W 117°05'4 8.9
2019-Oct-16 10:30N 32°01' W 117°10'4 8.8
2019-Oct-16 10:00N 32°03' W 117°15'5 8.8
2019-Oct-16 09:29N 32°04' W 117°20'4 8.6
2019-Oct-16 09:00N 32°06' W 117°24'4 8.4
2019-Oct-16 08:30N 32°08' W 117°29'4 8.3
2019-Oct-16 08:00N 32°10' W 117°33'4 8.5
2019-Oct-16 07:30N 32°13' W 117°35'4 8.6
2019-Oct-16 07:00N 32°17' W 117°38'4 8.6
2019-Oct-16 06:30N 32°21' W 117°40'4 8.6
2019-Oct-16 06:00N 32°25' W 117°42'160.8
2019-Oct-16 06:00N 32°24' W 117°42'510.6 300 / 101018.210.8 21.018.019.0
2019-Oct-16 05:30N 32°29' W 117°45'4 8.1
2019-Oct-16 05:00N 32°32' W 117°47'5477.3
2019-Oct-16 05:00N 32°30' W 117°42'918.1 290 / 121018.310.8 21.018.019.0
2019-Oct-16 04:30N 32°36' W 117°49'510.6
2019-Oct-16 04:00N 32°41' W 117°52'510.8
2019-Oct-16 03:30N 32°46' W 117°55'510.7
2019-Oct-16 03:00N 32°51' W 117°58'510.5
2019-Oct-16 02:30N 32°55' W 118°00'510.8
2019-Oct-16 02:00N 33°00' W 118°03'510.6
2019-Oct-16 01:30N 33°05' W 118°06'510.4
2019-Oct-16 01:00N 33°09' W 118°09'510.4
2019-Oct-16 00:30N 33°14' W 118°13'5 9.8
2019-Oct-16 00:00N 33°18' W 118°15'4 7.7
2019-Oct-15 23:29N 33°21' W 118°19'0 0.1
2019-Oct-15 22:56N 33°21' W 118°19'0 0.0
2019-Oct-15 22:29N 33°21' W 118°19'0 0.1
2019-Oct-15 21:59N 33°21' W 118°19'0 0.1
2019-Oct-15 21:29N 33°21' W 118°19'0 0.1
2019-Oct-15 20:59N 33°21' W 118°19'0 0.0
2019-Oct-15 20:26N 33°21' W 118°19'0 0.0
2019-Oct-15 19:56N 33°21' W 118°19'0 0.0
2019-Oct-15 19:29N 33°21' W 118°19'0 0.0
2019-Oct-15 18:56N 33°21' W 118°19'0 0.1
2019-Oct-15 18:29N 33°21' W 118°19'0 0.0
2019-Oct-15 17:59N 33°21' W 118°19'0 0.1
2019-Oct-15 17:29N 33°21' W 118°19'0 0.1
2019-Oct-15 16:47N 33°21' W 118°19'0 0.2
2019-Oct-15 16:29N 33°21' W 118°19'0 0.0
2019-Oct-15 15:26N 33°21' W 118°19'0 0.0
2019-Oct-15 15:00N 33°21' W 118°19'0 0.1
2019-Oct-15 14:29N 33°21' W 118°19'0 0.1
2019-Oct-15 14:00N 33°21' W 118°19'3 6.2
2019-Oct-15 13:30N 33°19' W 118°17'4 8.5
2019-Oct-15 13:00N 33°15' W 118°15'4 8.6
2019-Oct-15 12:30N 33°10' W 118°14'4 8.6
2019-Oct-15 12:00N 33°06' W 118°13'152.8
2019-Oct-15 12:00N 33°06' W 118°12'3 7.1 310 / 91018.310.8 18.014.820.0
2019-Oct-15 11:30N 33°03' W 118°10'4 8.7
2019-Oct-15 11:00N 32°60' W 118°06'4 8.3
2019-Oct-15 10:30N 32°56' W 118°04'4 8.4
2019-Oct-15 10:00N 32°52' W 118°03'4 8.1
2019-Oct-15 09:30N 32°48' W 118°01'4 7.9
2019-Oct-15 09:00N 32°45' W 117°59'4 8.3
2019-Oct-15 08:30N 32°45' W 117°54'4 7.9
2019-Oct-15 08:00N 32°49' W 117°52'4 8.9
2019-Oct-15 07:30N 32°53' W 117°54'4 8.9
2019-Oct-15 07:00N 32°57' W 117°56'4 8.7
2019-Oct-15 06:30N 33°01' W 117°58'4 8.6
2019-Oct-15 06:00N 33°05' W 117°60'4 8.5
2019-Oct-15 05:30N 33°09' W 118°01'4 8.8
2019-Oct-15 05:00N 33°13' W 118°03'3194.1
2019-Oct-15 05:00N 33°12' W 118°00'714.1 330 / 101018.410.8 19.015.919.0
2019-Oct-15 04:30N 33°17' W 118°05'5 9.3
2019-Oct-15 04:00N 33°22' W 118°07'4239.0
2019-Oct-15 04:00N 33°18' W 118°06'817.4 310 / 131017.910.8 19.015.919.0
2019-Oct-15 03:30N 33°26' W 118°09'5 9.4
2019-Oct-15 03:00N 33°30' W 118°11'5 9.3
2019-Oct-15 02:30N 33°35' W 118°13'5 9.6
2019-Oct-15 02:00N 33°40' W 118°12'4 8.9
2019-Oct-15 01:30N 33°44' W 118°11'1 2.2
2019-Oct-15 00:58N 33°45' W 118°11'0 0.0
2019-Oct-15 00:28N 33°45' W 118°11'0 0.0
2019-Oct-14 23:58N 33°45' W 118°11'0 0.0
2019-Oct-14 23:28N 33°45' W 118°11'0 0.0
2019-Oct-14 22:58N 33°45' W 118°11'0 0.0
2019-Oct-14 22:25N 33°45' W 118°11'0 0.0
2019-Oct-14 21:58N 33°45' W 118°11'0 0.0
2019-Oct-14 21:28N 33°45' W 118°11'0 0.0
2019-Oct-14 20:58N 33°45' W 118°11'0 0.0
2019-Oct-14 20:28N 33°45' W 118°11'0 0.0
2019-Oct-14 19:58N 33°45' W 118°11'0 0.0
2019-Oct-14 19:25N 33°45' W 118°11'0 0.0
2019-Oct-14 18:58N 33°45' W 118°11'0 0.0
2019-Oct-14 18:28N 33°45' W 118°11'0 0.0
2019-Oct-14 17:58N 33°45' W 118°11'0 0.0
2019-Oct-14 17:28N 33°45' W 118°11'0 0.0
2019-Oct-14 16:58N 33°45' W 118°11'0 0.0
2019-Oct-14 16:28N 33°45' W 118°11'0 0.0
2019-Oct-14 15:55N 33°45' W 118°11'0 0.0
2019-Oct-14 15:28N 33°45' W 118°11'0 0.0
2019-Oct-14 14:58N 33°45' W 118°11'0 0.0
2019-Oct-14 14:25N 33°45' W 118°11'0 0.0
2019-Oct-14 13:55N 33°45' W 118°11'0 0.0
2019-Oct-14 13:28N 33°45' W 118°11'0 0.0
2019-Oct-14 12:58N 33°45' W 118°11'0 0.3
2019-Oct-14 12:31N 33°45' W 118°11'1 1.9
2019-Oct-14 12:00N 33°44' W 118°11'5 9.7
2019-Oct-14 11:30N 33°39' W 118°10'4 8.3
2019-Oct-14 10:59N 33°35' W 118°09'4 8.4
2019-Oct-14 10:30N 33°31' W 118°08'4 8.5
2019-Oct-14 10:00N 33°27' W 118°06'5 8.7
2019-Oct-14 09:24N 33°22' W 118°04'4 8.5
2019-Oct-14 08:58N 33°19' W 118°03'4 8.2
2019-Oct-14 08:30N 33°15' W 118°01'5 9.2
2019-Oct-14 08:00N 33°11' W 117°59'5 9.2
2019-Oct-14 07:31N 33°07' W 117°57'5 9.9
2019-Oct-14 07:00N 33°02' W 117°55'917.7
2019-Oct-14 06:30N 32°54' W 117°51'918.4
2019-Oct-14 06:00N 32°45' W 117°47'5321.3
2019-Oct-14 06:00N 32°42' W 117°42'510.9 270 / 51015.910.8 18.014.819.0
2019-Oct-14 05:30N 32°37' W 117°42'918.6
2019-Oct-14 05:01N 32°28' W 117°38'5274.0
2019-Oct-14 05:00N 32°24' W 117°36'5 9.9 330 / 51015.910.8 18.014.819.0
2019-Oct-14 04:30N 32°19' W 117°34'1631.1
2019-Oct-14 04:00N 32°06' W 117°24'571.3 300 / 81015.910.8 18.014.820.0
2019-Oct-14 03:55N 32°11' W 117°26'29 1.7
2019-Oct-13 11:03N 31°49' W 117°03'1 7.7
2019-Oct-13 10:53N 31°49' W 117°05'18 6.7
2019-Oct-13 08:16N 31°32' W 117°08'3 7.6
2019-Oct-13 07:52N 31°34' W 117°11'3 8.3
2019-Oct-13 07:30N 31°36' W 117°13'4 8.4
2019-Oct-13 07:00N 31°40' W 117°15'4 8.2
2019-Oct-13 06:30N 31°44' W 117°18'4 8.0
2019-Oct-13 06:00N 31°47' W 117°20'1403.7
2019-Oct-13 06:00N 31°48' W 117°18'4 8.3 340 / 51014.210.8 18.016.420.0
2019-Oct-13 05:30N 31°51' W 117°21'4 7.8
2019-Oct-13 05:00N 31°55' W 117°23'4290.8
2019-Oct-13 05:00N 31°54' W 117°18'715.4 290 / 51014.210.8 19.015.920.0
2019-Oct-13 04:30N 31°58' W 117°25'4 7.4
2019-Oct-13 04:00N 31°59' W 117°30'5 7.9
2019-Oct-13 03:24N 31°55' W 117°32'  
Track history (hours):
 
Tides and Currents Weather Stations Pressure Air Temp Water Temp Dewpoint Dewpoint Depression Visibility Wind Speed Wind Dir Waves Ship Positions

Inspiration

Operator: Carnival Cruise Lines

Last reported at 2019-Oct-23 01:00 UTC. Time now 2019-Oct-23 01:03 UTC.
Position N 33°11' W 118°10'.

Type: Ship. MMSI: 309484000.

Date/timePositionNaut miles runAvg speedWind from/ knotsBaromVisibWave heightAir tempDewpointWater temp
2019-Oct-23 01:00N 33°11' W 118°10'5 9.8
2019-Oct-23 00:30N 33°15' W 118°12'5 9.6
2019-Oct-23 00:01N 33°19' W 118°16'3 4.4
2019-Oct-22 23:14N 33°21' W 118°19'0 0.2
2019-Oct-22 22:56N 33°21' W 118°19'0 0.0
2019-Oct-22 22:26N 33°21' W 118°19'0 0.0
2019-Oct-22 21:56N 33°21' W 118°19'0 0.0
2019-Oct-22 21:26N 33°21' W 118°19'0 0.1
2019-Oct-22 20:56N 33°21' W 118°19'0 0.0
2019-Oct-22 20:20N 33°21' W 118°19'0 0.0
2019-Oct-22 19:56N 33°21' W 118°19'0 0.1
2019-Oct-22 19:08N 33°21' W 118°19'0 0.0
2019-Oct-22 18:56N 33°21' W 118°19'0 0.0
2019-Oct-22 18:26N 33°21' W 118°19'0 0.0
2019-Oct-22 17:56N 33°21' W 118°19'0 0.0
2019-Oct-22 17:20N 33°21' W 118°19'0 0.0
2019-Oct-22 16:56N 33°21' W 118°19'0 0.0
2019-Oct-22 16:26N 33°21' W 118°19'0 0.0
2019-Oct-22 16:01N 33°21' W 118°19'0 0.0
2019-Oct-22 15:31N 33°21' W 118°19'0 0.0
2019-Oct-22 15:01N 33°21' W 118°19'0 0.1
2019-Oct-22 14:30N 33°21' W 118°19'0 0.2
2019-Oct-22 14:01N 33°21' W 118°19'3 5.9
2019-Oct-22 13:30N 33°19' W 118°17'4 8.4
2019-Oct-22 13:01N 33°15' W 118°15'4 8.2
2019-Oct-22 12:30N 33°11' W 118°14'4 7.8
2019-Oct-22 12:00N 33°07' W 118°13'4 8.1
2019-Oct-22 11:30N 33°03' W 118°11'4 8.3
2019-Oct-22 11:00N 33°01' W 118°07'4 7.9
2019-Oct-22 10:30N 32°57' W 118°05'4 8.3
2019-Oct-22 10:01N 32°53' W 118°03'4 8.4
2019-Oct-22 09:30N 32°49' W 118°02'4 8.5
2019-Oct-22 09:01N 32°46' W 117°59'4 8.1
2019-Oct-22 08:30N 32°45' W 117°55'4 8.0
2019-Oct-22 08:00N 32°48' W 117°52'4 8.3
2019-Oct-22 07:30N 32°52' W 117°54'4 8.4
2019-Oct-22 07:01N 32°56' W 117°55'4 8.2
2019-Oct-22 06:31N 32°60' W 117°57'4 8.3
2019-Oct-22 06:00N 33°04' W 117°59'4 8.5
2019-Oct-22 05:30N 33°08' W 118°01'4 8.1
2019-Oct-22 05:00N 33°11' W 118°03'4 8.2
2019-Oct-22 04:30N 33°15' W 118°04'4 8.4
2019-Oct-22 04:00N 33°19' W 118°06'168.5
2019-Oct-22 04:00N 33°18' W 118°06'511.0 310 / 121020.610.8 21.018.020.0
2019-Oct-22 03:31N 33°23' W 118°08'4 8.2
2019-Oct-22 03:00N 33°27' W 118°10'3 7.0
2019-Oct-22 02:30N 33°30' W 118°11'3 6.9
2019-Oct-22 02:00N 33°33' W 118°12'5 9.2
2019-Oct-22 01:31N 33°38' W 118°13'5 9.4
2019-Oct-22 01:00N 33°43' W 118°11'2 4.7
2019-Oct-22 00:29N 33°45' W 118°11'0 0.0
2019-Oct-21 23:59N 33°45' W 118°11'0 0.0
2019-Oct-21 23:29N 33°45' W 118°11'0 0.0
2019-Oct-21 22:59N 33°45' W 118°11'0 0.0
2019-Oct-21 22:29N 33°45' W 118°11'0 0.0
2019-Oct-21 21:59N 33°45' W 118°11'0 0.0
2019-Oct-21 21:29N 33°45' W 118°11'0 0.0
2019-Oct-21 20:56N 33°45' W 118°11'0 0.0
2019-Oct-21 20:29N 33°45' W 118°11'0 0.0
2019-Oct-21 19:59N 33°45' W 118°11'0 0.0
2019-Oct-21 19:26N 33°45' W 118°11'0 0.0
2019-Oct-21 18:56N 33°45' W 118°11'0 0.0
2019-Oct-21 18:29N 33°45' W 118°11'0 0.0
2019-Oct-21 17:56N 33°45' W 118°11'0 0.0
2019-Oct-21 17:26N 33°45' W 118°11'0 0.0
2019-Oct-21 16:59N 33°45' W 118°11'0 0.0
2019-Oct-21 16:29N 33°45' W 118°11'0 0.0
2019-Oct-21 15:59N 33°45' W 118°11'0 0.0
2019-Oct-21 15:29N 33°45' W 118°11'0 0.0
2019-Oct-21 14:59N 33°45' W 118°11'0 0.0
2019-Oct-21 14:29N 33°45' W 118°11'0 0.0
2019-Oct-21 13:59N 33°45' W 118°11'0 0.0
2019-Oct-21 13:29N 33°45' W 118°11'0 0.0
2019-Oct-21 13:00N 33°45' W 118°11'0 0.5
2019-Oct-21 12:30N 33°45' W 118°11'2 3.3
2019-Oct-21 12:00N 33°43' W 118°11'4 7.9
2019-Oct-21 11:30N 33°39' W 118°10'4 8.9
2019-Oct-21 11:00N 33°35' W 118°09'5 9.9
2019-Oct-21 10:30N 33°30' W 118°07'5 9.8
2019-Oct-21 10:00N 33°26' W 118°05'5 9.9
2019-Oct-21 09:30N 33°21' W 118°04'5 9.1
2019-Oct-21 09:00N 33°17' W 118°01'5 9.9
2019-Oct-21 08:30N 33°12' W 117°59'5 9.9
2019-Oct-21 08:00N 33°08' W 117°56'714.1
2019-Oct-21 07:30N 33°02' W 117°52'918.6
2019-Oct-21 07:00N 32°53' W 117°47'918.6
2019-Oct-21 06:30N 32°45' W 117°42'918.5
2019-Oct-21 06:00N 32°37' W 117°37'918.5
2019-Oct-21 05:30N 32°29' W 117°32'918.1
2019-Oct-21 05:00N 32°21' W 117°27'917.7
2019-Oct-21 04:30N 32°13' W 117°22'917.3
2019-Oct-21 04:00N 32°06' W 117°15'713.7
2019-Oct-21 03:30N 32°01' W 117°10'5 9.7
2019-Oct-21 03:01N 31°59' W 117°05'10 0.7
2019-Oct-20 11:27N 31°50' W 116°60'4 7.7
2019-Oct-20 10:52N 31°49' W 117°05'3 8.8
2019-Oct-20 10:30N 31°51' W 117°08'5 9.4
2019-Oct-20 10:00N 31°53' W 117°13'5 9.1
2019-Oct-20 09:30N 31°56' W 117°17'5 9.2
2019-Oct-20 09:00N 31°59' W 117°22'5 9.2
2019-Oct-20 08:30N 32°01' W 117°26'5 9.9
2019-Oct-20 08:00N 32°05' W 117°30'510.1
2019-Oct-20 07:30N 32°10' W 117°32'4 8.1
2019-Oct-20 07:00N 32°13' W 117°35'3 5.8
2019-Oct-20 06:30N 32°10' W 117°37'4 8.0
2019-Oct-20 06:00N 32°07' W 117°34'4 8.1
2019-Oct-20 05:30N 32°04' W 117°32'4 8.0
2019-Oct-20 05:00N 32°01' W 117°29'8640.4
2019-Oct-20 05:00N 31°54' W 117°24'4 7.8 310 / 151015.910.8 20.016.920.0
2019-Oct-20 04:30N 31°57' W 117°26'4 7.9
2019-Oct-20 04:00N 31°54' W 117°24'4 7.7
2019-Oct-20 03:30N 31°51' W 117°21'4 7.7
2019-Oct-20 03:00N 31°47' W 117°19'4 7.7
2019-Oct-20 02:30N 31°44' W 117°17'4 7.4
2019-Oct-20 02:00N 31°40' W 117°16'4 7.1
2019-Oct-20 01:28N 31°37' W 117°15'3 7.3
2019-Oct-20 01:00N 31°34' W 117°12'5 7.5
2019-Oct-20 00:24N 31°30' W 117°10'3 7.8
2019-Oct-20 00:00N 31°27' W 117°08'4 7.0
2019-Oct-19 23:30N 31°24' W 117°10'4 7.4
2019-Oct-19 23:00N 31°25' W 117°14'4 8.6
2019-Oct-19 22:30N 31°26' W 117°19'510.3
2019-Oct-19 22:00N 31°28' W 117°25'810.3
2019-Oct-19 21:13N 31°30' W 117°34'410.1
2019-Oct-19 20:52N 31°31' W 117°38'4 9.9
2019-Oct-19 20:30N 31°31' W 117°42'4 8.6
2019-Oct-19 20:00N 31°32' W 117°47'4 7.0
2019-Oct-19 19:30N 31°35' W 117°49'4 7.1
2019-Oct-19 19:00N 31°38' W 117°52'4 7.2
2019-Oct-19 18:30N 31°41' W 117°54'4 7.2
2019-Oct-19 18:00N 31°43' W 117°58'4 7.3
2019-Oct-19 17:30N 31°46' W 118°01'4 7.3
2019-Oct-19 17:00N 31°48' W 118°04'4 7.2
2019-Oct-19 16:30N 31°51' W 118°07'4 8.3
2019-Oct-19 16:00N 31°55' W 118°07'510.1
2019-Oct-19 15:30N 31°60' W 118°05'510.0
2019-Oct-19 15:00N 32°04' W 118°03'5312.6
2019-Oct-19 15:00N 32°00' W 118°00'917.7 300 / 161016.210.8 17.017.019.0
2019-Oct-19 14:29N 32°09' W 118°01'5 9.6
2019-Oct-19 14:00N 32°13' W 117°58'4 8.3
2019-Oct-19 13:30N 32°17' W 117°57'4 7.7
2019-Oct-19 13:00N 32°21' W 117°55'4 7.5
2019-Oct-19 12:30N 32°24' W 117°53'4 7.6
2019-Oct-19 12:00N 32°28' W 117°52'5315.6
2019-Oct-19 12:00N 32°24' W 117°48'714.7 300 / 61015.210.8 20.018.520.0
2019-Oct-19 11:30N 32°31' W 117°50'4 7.3
2019-Oct-19 11:00N 32°34' W 117°48'4 7.2
2019-Oct-19 10:30N 32°38' W 117°47'4 7.4
2019-Oct-19 10:00N 32°41' W 117°49'4 7.5
2019-Oct-19 09:30N 32°45' W 117°50'4 7.4
2019-Oct-19 09:00N 32°48' W 117°52'4 7.4
2019-Oct-19 08:30N 32°52' W 117°53'4 7.4
2019-Oct-19 08:00N 32°55' W 117°55'4 7.5
2019-Oct-19 07:30N 32°59' W 117°57'4 7.4
2019-Oct-19 07:00N 33°02' W 117°58'4 7.6
2019-Oct-19 06:30N 33°06' W 117°60'4 7.3
2019-Oct-19 06:00N 33°09' W 118°01'4 7.5
2019-Oct-19 05:30N 33°13' W 118°03'4 7.9
2019-Oct-19 05:00N 33°16' W 118°05'6392.4
2019-Oct-19 05:00N 33°12' W 118°00'1019.7 250 / 81016.010.8 20.016.920.0
2019-Oct-19 04:30N 33°20' W 118°06'4 7.8
2019-Oct-19 04:00N 33°24' W 118°08'6408.7
2019-Oct-19 04:00N 33°18' W 118°06'1019.9 340 / 51015.810.8 20.016.920.0
2019-Oct-19 03:30N 33°27' W 118°10'4 7.3
2019-Oct-19 03:00N 33°31' W 118°11'5 9.2
2019-Oct-19 02:30N 33°35' W 118°13'5 9.8
2019-Oct-19 02:00N 33°40' W 118°12'5 9.5
2019-Oct-19 01:30N 33°44' W 118°11'1 1.7
2019-Oct-19 01:00N 33°45' W 118°11'0 0.0
2019-Oct-19 00:27N 33°45' W 118°11'0 0.0
2019-Oct-18 23:57N 33°45' W 118°11'0 0.0
2019-Oct-18 23:30N 33°45' W 118°11'0 0.0
2019-Oct-18 23:00N 33°45' W 118°11'0 0.0
2019-Oct-18 22:30N 33°45' W 118°11'0 0.0
2019-Oct-18 21:57N 33°45' W 118°11'0 0.0
2019-Oct-18 21:30N 33°45' W 118°11'0 0.0
2019-Oct-18 20:57N 33°45' W 118°11'0 0.0
2019-Oct-18 20:30N 33°45' W 118°11'0 0.0
2019-Oct-18 20:00N 33°45' W 118°11'0 0.0
2019-Oct-18 19:30N 33°45' W 118°11'0 0.0
2019-Oct-18 18:57N 33°45' W 118°11'0 0.0
2019-Oct-18 18:27N 33°45' W 118°11'0 0.0
2019-Oct-18 17:48N 33°45' W 118°11'0 0.0
2019-Oct-18 17:24N 33°45' W 118°11'0 0.0
2019-Oct-18 16:51N 33°45' W 118°11'0 0.0
2019-Oct-18 16:30N 33°45' W 118°11'0 0.0
2019-Oct-18 16:00N 33°45' W 118°11'0 0.0
2019-Oct-18 15:27N 33°45' W 118°11'0 0.0
2019-Oct-18 15:00N 33°45' W 118°11'0 0.0
2019-Oct-18 14:27N 33°45' W 118°11'0 0.0
2019-Oct-18 13:54N 33°45' W 118°11'0 0.0
2019-Oct-18 13:30N 33°45' W 118°11'0 0.0
2019-Oct-18 13:00N 33°45' W 118°11'0 0.0
2019-Oct-18 12:27N 33°45' W 118°11'0 0.0
2019-Oct-18 12:00N 33°45' W 118°11'1 1.1
2019-Oct-18 11:31N 33°45' W 118°11'5 9.9
2019-Oct-18 11:00N 33°40' W 118°10'714.4
2019-Oct-18 10:30N 33°33' W 118°08'5 9.9
2019-Oct-18 10:00N 33°28' W 118°06'4 7.9
2019-Oct-18 09:30N 33°24' W 118°05'5 8.4
2019-Oct-18 08:52N 33°19' W 118°03'3 7.2
2019-Oct-18 08:30N 33°17' W 118°02'4 7.9
2019-Oct-18 08:00N 33°13' W 118°00'4 7.7
2019-Oct-18 07:30N 33°09' W 117°59'4 7.9
2019-Oct-18 07:00N 33°06' W 117°57'4 7.8
2019-Oct-18 06:30N 33°02' W 117°55'4 7.8
2019-Oct-18 06:00N 32°58' W 117°54'7740.8
2019-Oct-18 06:00N 32°54' W 117°48'4 7.8 340 / 51013.210.8 18.014.820.0
2019-Oct-18 05:30N 32°55' W 117°52'4 7.7
2019-Oct-18 05:00N 32°51' W 117°51'4255.5
2019-Oct-18 05:00N 32°48' W 117°48'1 2.7 270 / 131013.110.8 18.014.820.0
2019-Oct-18 04:30N 32°47' W 117°49'4 8.0
2019-Oct-18 04:00N 32°44' W 117°48'5351.5
2019-Oct-18 04:00N 32°42' W 117°42'4 8.5 270 / 201013.210.8 18.014.820.0
2019-Oct-18 03:30N 32°40' W 117°46'4 7.5
2019-Oct-18 03:00N 32°36' W 117°45'4 8.1
2019-Oct-18 02:30N 32°33' W 117°43'4 8.4
2019-Oct-18 02:00N 32°29' W 117°41'4 8.4
2019-Oct-18 01:30N 32°25' W 117°40'4 8.2
2019-Oct-18 01:00N 32°21' W 117°38'4 7.9
2019-Oct-18 00:30N 32°17' W 117°36'4 7.9
2019-Oct-18 00:00N 32°14' W 117°33'4 8.1
2019-Oct-17 23:30N 32°11' W 117°30'5 8.1
2019-Oct-17 22:57N 32°08' W 117°26'3 7.4
2019-Oct-17 22:30N 32°06' W 117°23'4 7.5
2019-Oct-17 22:00N 32°03' W 117°20'4 7.5
2019-Oct-17 21:30N 32°00' W 117°17'12 7.3
2019-Oct-17 19:50N 31°50' W 117°09'3 7.5
2019-Oct-17 19:25N 31°47' W 117°08'3 7.2
2019-Oct-17 19:00N 31°44' W 117°06'4 7.9
2019-Oct-17 18:29N 31°41' W 117°09'4 7.2
2019-Oct-17 17:54N 31°39' W 117°13'3 6.8
2019-Oct-17 17:30N 31°37' W 117°16'3 7.1
2019-Oct-17 17:00N 31°37' W 117°20'4 7.8
2019-Oct-17 16:30N 31°37' W 117°24'4 7.7
2019-Oct-17 16:00N 31°37' W 117°29'4283.5
2019-Oct-17 16:00N 31°36' W 117°24'816.3 320 / 151015.210.8 20.016.919.0
2019-Oct-17 15:30N 31°37' W 117°33'4 7.4
2019-Oct-17 15:00N 31°38' W 117°38'4 7.5
2019-Oct-17 14:30N 31°38' W 117°42'4 7.7
2019-Oct-17 14:00N 31°38' W 117°47'4 7.7
2019-Oct-17 13:30N 31°38' W 117°51'4 7.8
2019-Oct-17 12:59N 31°38' W 117°56'4 7.8
2019-Oct-17 12:30N 31°38' W 118°00'4 7.9
2019-Oct-17 12:00N 31°38' W 118°05'4 7.1
2019-Oct-17 11:30N 31°36' W 118°08'4 7.7
2019-Oct-17 11:00N 31°32' W 118°09'4 7.6
2019-Oct-17 10:30N 31°28' W 118°09'4 7.5
2019-Oct-17 10:00N 31°26' W 118°05'4 7.7
2019-Oct-17 09:30N 31°24' W 118°02'4 7.8
2019-Oct-17 09:00N 31°22' W 117°58'4 7.2
2019-Oct-17 08:30N 31°23' W 117°53'7 7.4
2019-Oct-17 07:36N 31°25' W 117°46'1 7.5
2019-Oct-17 07:28N 31°26' W 117°45'5 9.2
2019-Oct-17 06:53N 31°28' W 117°39'410.4
2019-Oct-17 06:30N 31°29' W 117°35'918.7
2019-Oct-17 06:00N 31°30' W 117°24'440.8 300 / 151014.810.8 20.016.919.0
2019-Oct-17 05:54N 31°32' W 117°28'410.4
2019-Oct-17 05:31N 31°33' W 117°24'1120.5
2019-Oct-17 05:00N 31°36' W 117°12'52079.4 300 / 111014.110.8 20.016.919.0
2019-Oct-17 04:59N 31°35' W 117°18'510.7
2019-Oct-17 04:30N 31°37' W 117°12'1120.9
2019-Oct-17 04:00N 31°36' W 117°00'521.2 340 / 101013.710.8 20.016.919.0
2019-Oct-17 03:44N 31°41' W 117°03'311.7
2019-Oct-17 03:30N 31°42' W 116°60'15 1.0
2019-Oct-16 12:52N 31°53' W 116°48'3 8.3
2019-Oct-16 12:30N 31°54' W 116°51'4 7.9
2019-Oct-16 11:59N 31°56' W 116°55'5 9.0
2019-Oct-16 11:27N 31°58' W 117°01'4 9.0
2019-Oct-16 11:00N 31°59' W 117°05'4 8.9
2019-Oct-16 10:30N 32°01' W 117°10'4 8.8
2019-Oct-16 10:00N 32°03' W 117°15'5 8.8
2019-Oct-16 09:29N 32°04' W 117°20'4 8.6
2019-Oct-16 09:00N 32°06' W 117°24'4 8.4
2019-Oct-16 08:30N 32°08' W 117°29'4 8.3
2019-Oct-16 08:00N 32°10' W 117°33'4 8.5
2019-Oct-16 07:30N 32°13' W 117°35'4 8.6
2019-Oct-16 07:00N 32°17' W 117°38'4 8.6
2019-Oct-16 06:30N 32°21' W 117°40'4 8.6
2019-Oct-16 06:00N 32°25' W 117°42'160.8
2019-Oct-16 06:00N 32°24' W 117°42'510.6 300 / 101018.210.8 21.018.019.0
2019-Oct-16 05:30N 32°29' W 117°45'4 8.1
2019-Oct-16 05:00N 32°32' W 117°47'5477.3
2019-Oct-16 05:00N 32°30' W 117°42'918.1 290 / 121018.310.8 21.018.019.0
2019-Oct-16 04:30N 32°36' W 117°49'510.6
2019-Oct-16 04:00N 32°41' W 117°52'510.8
2019-Oct-16 03:30N 32°46' W 117°55'510.7
2019-Oct-16 03:00N 32°51' W 117°58'510.5
2019-Oct-16 02:30N 32°55' W 118°00'510.8
2019-Oct-16 02:00N 33°00' W 118°03'510.6
2019-Oct-16 01:30N 33°05' W 118°06'510.4
2019-Oct-16 01:00N 33°09' W 118°09'510.4
2019-Oct-16 00:30N 33°14' W 118°13'5 9.8
2019-Oct-16 00:00N 33°18' W 118°15'4 7.7
2019-Oct-15 23:29N 33°21' W 118°19'0 0.1
2019-Oct-15 22:56N 33°21' W 118°19'0 0.0
2019-Oct-15 22:29N 33°21' W 118°19'0 0.1
2019-Oct-15 21:59N 33°21' W 118°19'0 0.1
2019-Oct-15 21:29N 33°21' W 118°19'0 0.1
2019-Oct-15 20:59N 33°21' W 118°19'0 0.0
2019-Oct-15 20:26N 33°21' W 118°19'0 0.0
2019-Oct-15 19:56N 33°21' W 118°19'0 0.0
2019-Oct-15 19:29N 33°21' W 118°19'0 0.0
2019-Oct-15 18:56N 33°21' W 118°19'0 0.1
2019-Oct-15 18:29N 33°21' W 118°19'0 0.0
2019-Oct-15 17:59N 33°21' W 118°19'0 0.1
2019-Oct-15 17:29N 33°21' W 118°19'0 0.1
2019-Oct-15 16:47N 33°21' W 118°19'0 0.2
2019-Oct-15 16:29N 33°21' W 118°19'0 0.0
2019-Oct-15 15:26N 33°21' W 118°19'0 0.0
2019-Oct-15 15:00N 33°21' W 118°19'0 0.1
2019-Oct-15 14:29N 33°21' W 118°19'0 0.1
2019-Oct-15 14:00N 33°21' W 118°19'3 6.2
2019-Oct-15 13:30N 33°19' W 118°17'4 8.5
2019-Oct-15 13:00N 33°15' W 118°15'4 8.6
2019-Oct-15 12:30N 33°10' W 118°14'4 8.6
2019-Oct-15 12:00N 33°06' W 118°13'152.8
2019-Oct-15 12:00N 33°06' W 118°12'3 7.1 310 / 91018.310.8 18.014.820.0
2019-Oct-15 11:30N 33°03' W 118°10'4 8.7
2019-Oct-15 11:00N 32°60' W 118°06'4 8.3
2019-Oct-15 10:30N 32°56' W 118°04'4 8.4
2019-Oct-15 10:00N 32°52' W 118°03'4 8.1
2019-Oct-15 09:30N 32°48' W 118°01'4 7.9
2019-Oct-15 09:00N 32°45' W 117°59'4 8.3
2019-Oct-15 08:30N 32°45' W 117°54'4 7.9
2019-Oct-15 08:00N 32°49' W 117°52'4 8.9
2019-Oct-15 07:30N 32°53' W 117°54'4 8.9
2019-Oct-15 07:00N 32°57' W 117°56'4 8.7
2019-Oct-15 06:30N 33°01' W 117°58'4 8.6
2019-Oct-15 06:00N 33°05' W 117°60'4 8.5
2019-Oct-15 05:30N 33°09' W 118°01'4 8.8
2019-Oct-15 05:00N 33°13' W 118°03'3194.1
2019-Oct-15 05:00N 33°12' W 118°00'714.1 330 / 101018.410.8 19.015.919.0
2019-Oct-15 04:30N 33°17' W 118°05'5 9.3
2019-Oct-15 04:00N 33°22' W 118°07'4239.0
2019-Oct-15 04:00N 33°18' W 118°06'817.4 310 / 131017.910.8 19.015.919.0
2019-Oct-15 03:30N 33°26' W 118°09'5 9.4
2019-Oct-15 03:00N 33°30' W 118°11'5 9.3
2019-Oct-15 02:30N 33°35' W 118°13'5 9.6
2019-Oct-15 02:00N 33°40' W 118°12'4 8.9
2019-Oct-15 01:30N 33°44' W 118°11'1 2.2
2019-Oct-15 00:58N 33°45' W 118°11'0 0.0
2019-Oct-15 00:28N 33°45' W 118°11'0 0.0
2019-Oct-14 23:58N 33°45' W 118°11'0 0.0
2019-Oct-14 23:28N 33°45' W 118°11'0 0.0
2019-Oct-14 22:58N 33°45' W 118°11'0 0.0
2019-Oct-14 22:25N 33°45' W 118°11'0 0.0
2019-Oct-14 21:58N 33°45' W 118°11'0 0.0
2019-Oct-14 21:28N 33°45' W 118°11'0 0.0
2019-Oct-14 20:58N 33°45' W 118°11'0 0.0
2019-Oct-14 20:28N 33°45' W 118°11'0 0.0
2019-Oct-14 19:58N 33°45' W 118°11'0 0.0
2019-Oct-14 19:25N 33°45' W 118°11'0 0.0
2019-Oct-14 18:58N 33°45' W 118°11'0 0.0
2019-Oct-14 18:28N 33°45' W 118°11'0 0.0
2019-Oct-14 17:58N 33°45' W 118°11'0 0.0
2019-Oct-14 17:28N 33°45' W 118°11'0 0.0
2019-Oct-14 16:58N 33°45' W 118°11'0 0.0
2019-Oct-14 16:28N 33°45' W 118°11'0 0.0
2019-Oct-14 15:55N 33°45' W 118°11'0 0.0
2019-Oct-14 15:28N 33°45' W 118°11'0 0.0
2019-Oct-14 14:58N 33°45' W 118°11'0 0.0
2019-Oct-14 14:25N 33°45' W 118°11'0 0.0
2019-Oct-14 13:55N 33°45' W 118°11'0 0.0
2019-Oct-14 13:28N 33°45' W 118°11'0 0.0
2019-Oct-14 12:58N 33°45' W 118°11'0 0.3
2019-Oct-14 12:31N 33°45' W 118°11'1 1.9
2019-Oct-14 12:00N 33°44' W 118°11'5 9.7
2019-Oct-14 11:30N 33°39' W 118°10'4 8.3
2019-Oct-14 10:59N 33°35' W 118°09'4 8.4
2019-Oct-14 10:30N 33°31' W 118°08'4 8.5
2019-Oct-14 10:00N 33°27' W 118°06'5 8.7
2019-Oct-14 09:24N 33°22' W 118°04'4 8.5
2019-Oct-14 08:58N 33°19' W 118°03'4 8.2
2019-Oct-14 08:30N 33°15' W 118°01'5 9.2
2019-Oct-14 08:00N 33°11' W 117°59'5 9.2
2019-Oct-14 07:31N 33°07' W 117°57'5 9.9
2019-Oct-14 07:00N 33°02' W 117°55'917.7
2019-Oct-14 06:30N 32°54' W 117°51'918.4
2019-Oct-14 06:00N 32°45' W 117°47'5321.3
2019-Oct-14 06:00N 32°42' W 117°42'510.9 270 / 51015.910.8 18.014.819.0
2019-Oct-14 05:30N 32°37' W 117°42'918.6
2019-Oct-14 05:01N 32°28' W 117°38'5274.0
2019-Oct-14 05:00N 32°24' W 117°36'5 9.9 330 / 51015.910.8 18.014.819.0
2019-Oct-14 04:30N 32°19' W 117°34'1631.1
2019-Oct-14 04:00N 32°06' W 117°24'571.3 300 / 81015.910.8 18.014.820.0
2019-Oct-14 03:55N 32°11' W 117°26'29 1.7
2019-Oct-13 11:03N 31°49' W 117°03'1 7.7
2019-Oct-13 10:53N 31°49' W 117°05'18 6.7
2019-Oct-13 08:16N 31°32' W 117°08'3 7.6
2019-Oct-13 07:52N 31°34' W 117°11'3 8.3
2019-Oct-13 07:30N 31°36' W 117°13'4 8.4
2019-Oct-13 07:00N 31°40' W 117°15'4 8.2
2019-Oct-13 06:30N 31°44' W 117°18'4 8.0
2019-Oct-13 06:00N 31°47' W 117°20'1403.7
2019-Oct-13 06:00N 31°48' W 117°18'4 8.3 340 / 51014.210.8 18.016.420.0
2019-Oct-13 05:30N 31°51' W 117°21'4 7.8
2019-Oct-13 05:00N 31°55' W 117°23'4290.8
2019-Oct-13 05:00N 31°54' W 117°18'715.4 290 / 51014.210.8 19.015.920.0
2019-Oct-13 04:30N 31°58' W 117°25'4 7.4
2019-Oct-13 04:00N 31°59' W 117°30'5 7.9
2019-Oct-13 03:24N 31°55' W 117°32'  

Dump ship's entire track history